createdAt,value
2018-07-11T00:00:49.057Z,16.50
2018-07-11T00:01:49.039Z,16.53
2018-07-11T00:02:49.023Z,16.53
2018-07-11T00:03:49.007Z,16.56
2018-07-11T00:04:48.992Z,16.53
2018-07-11T00:05:48.977Z,16.43
2018-07-11T00:06:48.962Z,16.43
2018-07-11T00:07:48.944Z,16.38
2018-07-11T00:08:48.931Z,16.38
2018-07-11T00:09:48.914Z,16.45
2018-07-11T00:10:48.900Z,16.48
2018-07-11T00:11:48.887Z,16.45
2018-07-11T00:12:48.868Z,16.24
2018-07-11T00:13:48.854Z,16.45
2018-07-11T00:14:48.838Z,16.30
2018-07-11T00:15:48.822Z,16.39
2018-07-11T00:16:48.806Z,16.43
2018-07-11T00:17:48.790Z,16.42
2018-07-11T00:18:48.777Z,16.25
2018-07-11T00:19:48.760Z,16.39
2018-07-11T00:20:48.750Z,16.35
2018-07-11T00:21:48.727Z,16.38
2018-07-11T00:22:48.713Z,16.28
2018-07-11T00:23:48.699Z,16.35
2018-07-11T00:24:48.681Z,16.33
2018-07-11T00:25:48.665Z,16.28
2018-07-11T00:26:48.651Z,16.23
2018-07-11T00:27:48.640Z,16.15
2018-07-11T00:28:48.620Z,16.28
2018-07-11T00:29:48.611Z,16.24
2018-07-11T00:30:48.589Z,16.27
2018-07-11T00:31:48.571Z,16.24
2018-07-11T00:32:48.556Z,16.15
2018-07-11T00:33:48.540Z,16.07
2018-07-11T00:34:48.524Z,16.07
2018-07-11T00:35:48.510Z,16.04
2018-07-11T00:36:48.493Z,16.00
2018-07-11T00:37:48.478Z,15.84
2018-07-11T00:38:48.464Z,15.82
2018-07-11T00:39:48.448Z,15.86
2018-07-11T00:40:48.434Z,15.75
2018-07-11T00:41:48.417Z,15.75
2018-07-11T00:42:48.400Z,15.78
2018-07-11T00:43:48.386Z,15.75
2018-07-11T00:44:48.375Z,15.71
2018-07-11T00:45:48.365Z,15.76
2018-07-11T00:46:48.338Z,15.92
2018-07-11T00:47:48.323Z,15.86
2018-07-11T00:48:48.310Z,15.82
2018-07-11T00:49:48.294Z,15.87
2018-07-11T00:50:48.282Z,15.84
2018-07-11T00:51:48.262Z,15.96
2018-07-11T00:52:48.244Z,15.84
2018-07-11T00:53:48.235Z,15.93
2018-07-11T00:54:48.221Z,15.96
2018-07-11T00:55:48.201Z,15.89
2018-07-11T00:56:48.202Z,15.82
2018-07-11T00:57:48.165Z,15.87
2018-07-11T00:58:48.152Z,15.96
2018-07-11T00:59:48.136Z,15.90
2018-07-11T01:00:48.122Z,15.82
2018-07-11T01:01:48.104Z,15.96
2018-07-11T01:02:48.088Z,15.94
2018-07-11T01:03:48.078Z,15.94
2018-07-11T01:04:48.058Z,15.94
2018-07-11T01:05:48.041Z,15.96
2018-07-11T01:06:48.037Z,15.92
2018-07-11T01:07:48.010Z,15.92
2018-07-11T01:08:47.997Z,16.01
2018-07-11T01:09:47.979Z,16.05
2018-07-11T01:10:47.964Z,15.93
2018-07-11T01:11:47.949Z,15.93
2018-07-11T01:12:47.931Z,15.93
2018-07-11T01:13:47.915Z,15.96
2018-07-11T01:14:47.900Z,16.00
2018-07-11T01:15:47.888Z,15.92
2018-07-11T01:16:47.870Z,15.93
2018-07-11T01:17:47.852Z,15.96
2018-07-11T01:18:47.847Z,16.00
2018-07-11T01:19:47.825Z,16.00
2018-07-11T01:20:47.808Z,15.94
2018-07-11T01:21:47.790Z,16.02
2018-07-11T01:22:47.768Z,16.21
2018-07-11T01:23:47.761Z,16.23
2018-07-11T01:24:47.745Z,16.21
2018-07-11T01:25:47.733Z,16.38
2018-07-11T01:26:47.714Z,16.38
2018-07-11T01:27:47.698Z,16.41
2018-07-11T01:28:47.686Z,16.45
2018-07-11T01:29:47.667Z,16.52
2018-07-11T01:30:47.655Z,16.49
2018-07-11T01:31:47.640Z,16.52
2018-07-11T01:32:47.620Z,16.61
2018-07-11T01:33:47.606Z,16.60
2018-07-11T01:34:47.591Z,16.66
2018-07-11T01:35:47.584Z,16.64
2018-07-11T01:36:47.563Z,16.60
2018-07-11T01:37:47.542Z,16.60
2018-07-11T01:38:47.528Z,16.73
2018-07-11T01:39:47.513Z,16.66
2018-07-11T01:40:47.497Z,16.70
2018-07-11T01:41:47.482Z,16.75
2018-07-11T01:42:47.465Z,16.68
2018-07-11T01:43:47.451Z,16.71
2018-07-11T01:44:47.436Z,16.73
2018-07-11T01:45:47.423Z,16.73
2018-07-11T01:46:47.405Z,16.79
2018-07-11T01:47:47.388Z,16.71
2018-07-11T01:48:47.372Z,16.73
2018-07-11T01:49:47.356Z,16.78
2018-07-11T01:50:47.340Z,16.64
2018-07-11T01:51:47.326Z,16.60
2018-07-11T01:52:47.310Z,16.58
2018-07-11T01:53:47.293Z,16.64
2018-07-11T01:54:47.283Z,16.66
2018-07-11T01:55:47.264Z,16.71
2018-07-11T01:56:47.249Z,16.64
2018-07-11T01:57:47.234Z,16.66
2018-07-11T01:58:47.218Z,16.67
2018-07-11T01:59:47.202Z,16.50
2018-07-11T02:00:47.187Z,16.63
2018-07-11T02:01:47.170Z,16.64
2018-07-11T02:02:47.155Z,16.60
2018-07-11T02:03:47.144Z,16.64
2018-07-11T02:04:47.127Z,16.63
2018-07-11T02:05:47.116Z,16.66
2018-07-11T02:06:47.094Z,16.57
2018-07-11T02:07:47.080Z,16.46
2018-07-11T02:08:47.062Z,16.49
2018-07-11T02:09:47.052Z,16.46
2018-07-11T02:10:47.034Z,16.48
2018-07-11T02:11:47.019Z,16.50
2018-07-11T02:12:47.003Z,16.50
2018-07-11T02:13:46.987Z,16.45
2018-07-11T02:14:46.972Z,16.61
2018-07-11T02:15:46.957Z,16.61
2018-07-11T02:16:46.945Z,16.61
2018-07-11T02:17:46.926Z,16.75
2018-07-11T02:18:46.910Z,16.75
2018-07-11T02:19:46.895Z,16.68
2018-07-11T02:20:46.879Z,16.79
2018-07-11T02:21:46.867Z,16.81
2018-07-11T02:22:46.848Z,16.83
2018-07-11T02:23:46.836Z,16.82
2018-07-11T02:24:46.819Z,16.85
2018-07-11T02:25:46.805Z,16.85
2018-07-11T02:26:46.790Z,16.86
2018-07-11T02:27:46.774Z,16.79
2018-07-11T02:28:46.758Z,16.68
2018-07-11T02:29:46.742Z,16.67
2018-07-11T02:30:46.728Z,16.70
2018-07-11T02:31:46.713Z,16.63
2018-07-11T02:32:46.699Z,16.73
2018-07-11T02:33:46.685Z,16.79
2018-07-11T02:34:46.666Z,16.75
2018-07-11T02:35:46.652Z,16.78
2018-07-11T02:36:46.634Z,16.82
2018-07-11T02:37:46.621Z,16.83
2018-07-11T02:38:46.605Z,16.79
2018-07-11T02:39:46.590Z,16.83
2018-07-11T02:40:46.578Z,16.83
2018-07-11T02:41:46.559Z,16.85
2018-07-11T02:42:46.541Z,16.86
2018-07-11T02:43:46.532Z,16.88
2018-07-11T02:44:46.515Z,16.98
2018-07-11T02:45:46.498Z,16.97
2018-07-11T02:46:46.483Z,16.93
2018-07-11T02:47:46.468Z,16.97
2018-07-11T02:48:46.451Z,16.89
2018-07-11T02:49:46.436Z,16.96
2018-07-11T02:50:46.423Z,16.89
2018-07-11T02:51:46.406Z,16.86
2018-07-11T02:52:46.391Z,16.89
2018-07-11T02:53:46.375Z,16.93
2018-07-11T02:54:46.359Z,16.88
2018-07-11T02:55:46.344Z,16.89
2018-07-11T02:56:46.328Z,16.91
2018-07-11T02:57:46.312Z,16.88
2018-07-11T02:58:46.301Z,16.86
2018-07-11T02:59:46.286Z,16.86
2018-07-11T03:00:46.269Z,16.71
2018-07-11T03:01:46.255Z,16.79
2018-07-11T03:02:46.237Z,16.85
2018-07-11T03:03:46.223Z,16.86
2018-07-11T03:04:46.206Z,16.82
2018-07-11T03:05:46.191Z,16.73
2018-07-11T03:06:46.181Z,16.66
2018-07-11T03:07:46.163Z,16.70
2018-07-11T03:08:46.149Z,16.70
2018-07-11T03:09:46.133Z,16.60
2018-07-11T03:10:46.116Z,16.67
2018-07-11T03:11:46.098Z,16.53
2018-07-11T03:12:46.091Z,16.63
2018-07-11T03:13:46.069Z,16.63
2018-07-11T03:14:46.053Z,16.58
2018-07-11T03:15:46.041Z,16.70
2018-07-11T03:16:46.025Z,16.75
2018-07-11T03:17:46.009Z,16.70
2018-07-11T03:18:45.996Z,16.79
2018-07-11T03:19:45.978Z,16.79
2018-07-11T03:20:45.965Z,16.88
2018-07-11T03:21:45.946Z,16.85
2018-07-11T03:22:45.932Z,17.00
2018-07-11T03:23:45.917Z,16.98
2018-07-11T03:24:45.900Z,16.98
2018-07-11T03:25:45.885Z,17.01
2018-07-11T03:26:45.873Z,17.12
2018-07-11T03:27:45.856Z,17.16
2018-07-11T03:28:45.845Z,17.12
2018-07-11T03:29:45.825Z,17.11
2018-07-11T03:30:45.811Z,17.11
2018-07-11T03:31:45.796Z,17.16
2018-07-11T03:32:45.780Z,17.12
2018-07-11T03:33:45.766Z,17.11
2018-07-11T03:34:45.748Z,17.08
2018-07-11T03:35:45.733Z,17.00
2018-07-11T03:36:45.723Z,16.94
2018-07-11T03:37:45.706Z,16.86
2018-07-11T03:38:45.690Z,16.94
2018-07-11T03:39:45.675Z,16.88
2018-07-11T03:40:45.662Z,16.91
2018-07-11T03:41:45.648Z,17.00
2018-07-11T03:42:45.629Z,17.08
2018-07-11T03:43:45.613Z,17.14
2018-07-11T03:44:45.598Z,17.18
2018-07-11T03:45:45.589Z,17.21
2018-07-11T03:46:45.569Z,17.19
2018-07-11T03:47:45.556Z,17.18
2018-07-11T03:48:45.538Z,17.08
2018-07-11T03:49:45.523Z,17.19
2018-07-11T03:50:45.509Z,17.15
2018-07-11T03:51:45.497Z,17.19
2018-07-11T03:52:45.478Z,17.16
2018-07-11T03:53:45.482Z,17.19
2018-07-11T03:54:45.451Z,17.26
2018-07-11T03:55:45.432Z,17.28
2018-07-11T03:56:45.418Z,17.25
2018-07-11T03:57:45.404Z,17.25
2018-07-11T03:58:45.388Z,17.34
2018-07-11T03:59:45.373Z,17.30
2018-07-11T04:00:45.363Z,17.23
2018-07-11T04:01:45.343Z,17.22
2018-07-11T04:02:45.328Z,17.28
2018-07-11T04:03:45.316Z,17.18
2018-07-11T04:04:45.335Z,17.15
2018-07-11T04:05:45.283Z,17.08
2018-07-11T04:06:45.271Z,17.15
2018-07-11T04:07:45.259Z,17.16
2018-07-11T04:08:45.238Z,17.15
2018-07-11T04:09:45.222Z,17.30
2018-07-11T04:10:45.207Z,17.30
2018-07-11T04:11:45.193Z,17.21
2018-07-11T04:12:45.177Z,17.16
2018-07-11T04:13:45.166Z,17.15
2018-07-11T04:14:45.149Z,17.19
2018-07-11T04:15:45.140Z,17.19
2018-07-11T04:16:45.117Z,17.14
2018-07-11T04:17:45.111Z,17.21
2018-07-11T04:18:45.089Z,17.18
2018-07-11T04:19:45.078Z,17.18
2018-07-11T04:20:45.063Z,17.08
2018-07-11T04:21:45.046Z,17.16
2018-07-11T04:22:45.028Z,17.12
2018-07-11T04:23:45.022Z,17.14
2018-07-11T04:24:44.997Z,17.19
2018-07-11T04:25:44.984Z,17.21
2018-07-11T04:26:44.968Z,17.16
2018-07-11T04:27:44.955Z,17.21
2018-07-11T04:28:44.991Z,17.25
2018-07-11T04:29:44.920Z,17.25
2018-07-11T04:30:44.907Z,17.21
2018-07-11T04:31:44.893Z,17.34
2018-07-11T04:32:44.879Z,17.30
2018-07-11T04:33:44.863Z,17.33
2018-07-11T04:34:44.931Z,17.28
2018-07-11T04:35:44.833Z,17.19
2018-07-11T04:36:44.819Z,17.25
2018-07-11T04:37:44.803Z,17.28
2018-07-11T04:38:44.792Z,17.37
2018-07-11T04:39:44.774Z,17.46
2018-07-11T04:40:44.758Z,17.51
2018-07-11T04:41:44.748Z,17.41
2018-07-11T04:42:44.729Z,17.46
2018-07-11T04:43:44.715Z,17.52
2018-07-11T04:44:44.703Z,17.49
2018-07-11T04:45:44.684Z,17.56
2018-07-11T04:46:44.676Z,17.55
2018-07-11T04:47:44.665Z,17.48
2018-07-11T04:48:44.641Z,17.54
2018-07-11T04:49:44.625Z,17.55
2018-07-11T04:50:44.614Z,17.52
2018-07-11T04:51:44.596Z,17.52
2018-07-11T04:52:44.619Z,17.55
2018-07-11T04:53:44.568Z,17.51
2018-07-11T04:54:44.552Z,17.43
2018-07-11T04:55:44.537Z,17.38
2018-07-11T04:56:44.521Z,17.49
2018-07-11T04:57:44.508Z,17.46
2018-07-11T04:58:44.538Z,17.46
2018-07-11T04:59:44.481Z,17.38
2018-07-11T05:00:44.463Z,17.43
2018-07-11T05:01:44.448Z,17.56
2018-07-11T05:02:44.432Z,17.55
2018-07-11T05:03:44.419Z,17.58
2018-07-11T05:04:44.411Z,17.58
2018-07-11T05:05:44.389Z,17.56
2018-07-11T05:06:44.374Z,17.58
2018-07-11T05:07:44.361Z,17.66
2018-07-11T05:08:44.346Z,17.56
2018-07-11T05:09:44.332Z,17.58
2018-07-11T05:10:44.360Z,17.70
2018-07-11T05:11:44.303Z,17.54
2018-07-11T05:12:44.289Z,17.71
2018-07-11T05:13:44.273Z,17.64
2018-07-11T05:14:44.259Z,17.71
2018-07-11T05:15:44.246Z,17.75
2018-07-11T05:16:44.231Z,17.81
2018-07-11T05:17:44.217Z,17.92
2018-07-11T05:18:44.205Z,17.90
2018-07-11T05:19:44.192Z,18.00
2018-07-11T05:20:44.174Z,17.89
2018-07-11T05:21:44.162Z,17.89
2018-07-11T05:22:44.145Z,17.78
2018-07-11T05:23:44.131Z,17.89
2018-07-11T05:24:44.119Z,17.87
2018-07-11T05:25:44.100Z,17.78
2018-07-11T05:26:44.088Z,17.81
2018-07-11T05:27:44.119Z,17.68
2018-07-11T05:28:44.061Z,17.74
2018-07-11T05:29:44.046Z,17.74
2018-07-11T05:30:44.035Z,17.81
2018-07-11T05:34:27.290Z,17.81
2018-07-11T05:35:27.259Z,17.70
2018-07-11T05:36:27.310Z,17.77
2018-07-11T05:37:27.228Z,17.58
2018-07-11T05:38:27.213Z,17.72
2018-07-11T05:39:27.203Z,17.74
2018-07-11T05:40:27.187Z,17.79
2018-07-11T05:41:27.171Z,17.86
2018-07-11T05:45:10.411Z,18.00
2018-07-11T05:46:10.408Z,18.10
2018-07-11T05:47:10.383Z,18.10
2018-07-11T05:48:10.416Z,18.15
2018-07-11T05:49:10.354Z,18.15
2018-07-11T05:50:10.345Z,18.14
2018-07-11T05:51:10.327Z,18.17
2018-07-11T05:52:10.319Z,18.17
2018-07-11T05:53:10.296Z,18.17
2018-07-11T05:54:10.286Z,18.29
2018-07-11T05:55:10.272Z,18.36
2018-07-11T05:56:10.260Z,18.29
2018-07-11T05:57:10.243Z,18.37
2018-07-11T05:58:10.231Z,18.39
2018-07-11T05:59:10.215Z,18.33
2018-07-11T06:00:10.207Z,18.45
2018-07-11T06:01:10.186Z,18.51
2018-07-11T06:02:10.173Z,18.63
2018-07-11T06:03:10.163Z,18.69
2018-07-11T06:04:10.150Z,18.72
2018-07-11T06:05:10.132Z,18.73
2018-07-11T06:06:10.120Z,18.78
2018-07-11T06:07:10.105Z,18.94
2018-07-11T06:08:10.290Z,18.88
2018-07-11T06:09:10.078Z,18.98
2018-07-11T06:10:10.064Z,19.07
2018-07-11T06:11:10.053Z,19.14
2018-07-11T06:12:10.038Z,19.14
2018-07-11T06:13:10.024Z,19.29
2018-07-11T06:14:10.010Z,19.37
2018-07-11T06:15:10.001Z,19.44
2018-07-11T06:16:09.986Z,19.50
2018-07-11T06:17:09.970Z,19.56
2018-07-11T06:18:09.956Z,19.71
2018-07-11T06:19:09.944Z,19.71
2018-07-11T06:20:09.988Z,19.68
2018-07-11T06:21:09.918Z,19.77
2018-07-11T06:22:09.909Z,19.83
2018-07-11T06:23:09.891Z,19.76
2018-07-11T06:24:09.879Z,19.83
2018-07-11T06:25:09.865Z,19.74
2018-07-11T06:26:09.853Z,19.80
2018-07-11T06:27:09.845Z,19.81
2018-07-11T06:28:09.941Z,19.73
2018-07-11T06:29:09.814Z,19.71
2018-07-11T06:30:09.801Z,19.71
2018-07-11T06:31:09.794Z,19.80
2018-07-11T06:32:09.778Z,19.83
2018-07-11T06:33:09.762Z,19.91
2018-07-11T06:34:09.758Z,19.83
2018-07-11T06:35:09.739Z,19.78
2018-07-11T06:36:09.736Z,19.66
2018-07-11T06:37:09.714Z,19.74
2018-07-11T06:38:09.701Z,19.58
2018-07-11T06:39:09.694Z,19.56
2018-07-11T06:40:09.678Z,19.51
2018-07-11T06:41:09.665Z,19.47
2018-07-11T06:42:09.659Z,19.50
2018-07-11T06:43:09.643Z,19.51
2018-07-11T06:44:09.626Z,19.39
2018-07-11T06:45:09.613Z,19.41
2018-07-11T06:46:09.601Z,19.46
2018-07-11T06:47:09.589Z,19.37
2018-07-11T06:48:09.576Z,19.46
2018-07-11T06:49:09.563Z,19.47
2018-07-11T06:50:09.555Z,19.59
2018-07-11T06:51:09.540Z,19.69
2018-07-11T06:52:09.606Z,19.74
2018-07-11T06:53:09.512Z,19.84
2018-07-11T06:54:09.501Z,19.91
2018-07-11T06:55:09.488Z,19.94
2018-07-11T06:56:09.527Z,19.96
2018-07-11T06:57:09.463Z,19.99
2018-07-11T06:58:09.450Z,20.05
2018-07-11T06:59:09.438Z,20.17
2018-07-11T07:00:09.429Z,20.26
2018-07-11T07:01:09.413Z,20.38
2018-07-11T07:02:09.405Z,20.35
2018-07-11T07:03:09.387Z,20.32
2018-07-11T07:04:09.381Z,20.58
2018-07-11T07:05:09.364Z,20.38
2018-07-11T07:06:09.354Z,20.39
2018-07-11T07:07:09.344Z,20.35
2018-07-11T07:08:09.326Z,20.41
2018-07-11T07:09:09.318Z,20.39
2018-07-11T07:10:09.302Z,20.48
2018-07-11T07:11:09.293Z,20.64
2018-07-11T07:12:09.289Z,20.48
2018-07-11T07:13:09.266Z,20.51
2018-07-11T07:14:09.253Z,20.52
2018-07-11T07:15:09.247Z,20.52
2018-07-11T07:16:09.229Z,20.47
2018-07-11T07:17:09.217Z,20.58
2018-07-11T07:18:09.210Z,20.54
2018-07-11T07:19:09.193Z,20.66
2018-07-11T07:20:09.180Z,20.72
2018-07-11T07:21:09.167Z,20.80
2018-07-11T07:22:09.156Z,20.95
2018-07-11T07:23:09.147Z,20.94
2018-07-11T07:24:09.141Z,20.98
2018-07-11T07:25:09.121Z,21.01
2018-07-11T07:26:09.112Z,21.10
2018-07-11T07:27:09.096Z,21.06
2018-07-11T07:28:09.086Z,21.03
2018-07-11T07:29:09.211Z,20.99
2018-07-11T07:30:09.062Z,20.95
2018-07-11T07:31:09.052Z,20.94
2018-07-11T07:32:09.038Z,20.91
2018-07-11T07:33:09.032Z,20.88
2018-07-11T07:34:09.014Z,20.80
2018-07-11T07:35:09.003Z,20.80
2018-07-11T07:36:09.042Z,20.79
2018-07-11T07:37:08.977Z,20.85
2018-07-11T07:38:08.966Z,20.77
2018-07-11T07:39:08.956Z,20.73
2018-07-11T07:40:08.942Z,20.80
2018-07-11T07:41:08.932Z,20.76
2018-07-11T07:42:08.921Z,20.85
2018-07-11T07:43:08.906Z,20.79
2018-07-11T07:44:08.894Z,20.69
2018-07-11T07:45:08.882Z,20.76
2018-07-11T07:46:08.870Z,20.74
2018-07-11T07:47:08.894Z,20.84
2018-07-11T07:48:08.848Z,20.82
2018-07-11T07:49:08.835Z,20.88
2018-07-11T07:50:08.823Z,20.99
2018-07-11T07:51:08.810Z,21.03
2018-07-11T07:52:08.800Z,21.09
2018-07-11T07:53:08.788Z,21.16
2018-07-11T07:54:08.777Z,21.38
2018-07-11T07:55:08.764Z,21.59
2018-07-11T07:56:08.754Z,21.82
2018-07-11T07:57:08.746Z,22.28
2018-07-11T07:58:08.735Z,22.75
2018-07-11T07:59:08.725Z,23.40
2018-07-11T08:00:08.707Z,23.85
2018-07-11T08:01:08.695Z,24.15
2018-07-11T08:02:08.685Z,24.84
2018-07-11T08:03:08.677Z,25.69
2018-07-11T08:04:08.661Z,26.45
2018-07-11T08:05:08.656Z,27.07
2018-07-11T08:06:08.638Z,27.51
2018-07-11T08:07:08.630Z,27.65
2018-07-11T08:08:08.616Z,27.43
2018-07-11T08:09:08.603Z,26.77
2018-07-11T08:10:08.594Z,26.43
2018-07-11T08:11:08.584Z,25.82
2018-07-11T08:12:08.573Z,25.30
2018-07-11T08:13:08.562Z,25.24
2018-07-11T08:14:08.551Z,26.17
2018-07-11T08:15:08.540Z,26.58
2018-07-11T08:16:08.533Z,26.84
2018-07-11T08:17:08.517Z,27.55
2018-07-11T08:18:08.508Z,28.11
2018-07-11T08:19:08.500Z,27.51
2018-07-11T08:20:08.489Z,26.99
2018-07-11T08:21:08.482Z,26.77
2018-07-11T08:22:08.472Z,26.94
2018-07-11T08:23:08.462Z,26.97
2018-07-11T08:24:08.453Z,26.81
2018-07-11T08:25:08.445Z,26.58
2018-07-11T08:26:08.437Z,26.36
2018-07-11T08:27:08.494Z,26.18
2018-07-11T08:28:08.422Z,26.05
2018-07-11T08:29:08.409Z,25.90
2018-07-11T08:30:08.401Z,25.43
2018-07-11T08:31:08.395Z,25.35
2018-07-11T08:32:08.385Z,25.10
2018-07-11T08:33:08.376Z,25.03
2018-07-11T08:34:08.367Z,24.88
2018-07-11T08:35:08.469Z,24.96
2018-07-11T08:36:08.350Z,25.00
2018-07-11T08:37:08.340Z,24.95
2018-07-11T08:38:08.331Z,25.99
2018-07-11T08:39:08.330Z,27.37
2018-07-11T08:40:08.315Z,28.41
2018-07-11T08:41:08.311Z,29.55
2018-07-11T08:42:08.308Z,30.43
2018-07-11T08:43:08.300Z,30.57
2018-07-11T08:44:08.286Z,30.24
2018-07-11T08:45:08.277Z,29.76
2018-07-11T08:46:08.269Z,29.00
2018-07-11T08:47:08.263Z,28.85
2018-07-11T08:48:08.308Z,29.05
2018-07-11T08:49:08.248Z,29.11
2018-07-11T08:50:08.244Z,28.40
2018-07-11T08:51:08.238Z,27.94
2018-07-11T08:52:08.235Z,27.67
2018-07-11T08:53:08.232Z,27.51
2018-07-11T08:54:08.221Z,27.40
2018-07-11T08:55:08.268Z,27.22
2018-07-11T08:56:08.207Z,26.92
2018-07-11T08:57:08.197Z,26.75
2018-07-11T08:58:08.191Z,26.54
2018-07-11T08:59:08.185Z,26.09
2018-07-11T09:00:08.178Z,25.70
2018-07-11T09:01:08.170Z,25.13
2018-07-11T09:02:08.164Z,24.99
2018-07-11T09:03:08.161Z,24.98
2018-07-11T09:04:08.151Z,24.96
2018-07-11T09:05:08.146Z,24.91
2018-07-11T09:06:08.138Z,24.96
2018-07-11T09:07:08.133Z,25.03
2018-07-11T09:08:08.122Z,25.03
2018-07-11T09:09:08.113Z,25.03
2018-07-11T09:10:08.108Z,25.75
2018-07-11T09:11:08.109Z,26.63
2018-07-11T09:12:08.097Z,26.88
2018-07-11T09:13:08.088Z,27.19
2018-07-11T09:14:08.080Z,27.92
2018-07-11T09:15:08.074Z,28.19
2018-07-11T09:16:08.073Z,28.09
2018-07-11T09:17:08.070Z,28.58
2018-07-11T09:18:08.057Z,29.45
2018-07-11T09:19:08.052Z,29.94
2018-07-11T09:20:08.044Z,30.11
2018-07-11T09:21:08.036Z,30.35
2018-07-11T09:22:08.033Z,30.37
2018-07-11T09:23:08.027Z,30.00
2018-07-11T09:24:08.076Z,29.79
2018-07-11T09:26:08.013Z,30.16
2018-07-11T09:27:08.006Z,30.57
2018-07-11T09:28:08.002Z,31.02
2018-07-11T09:29:07.993Z,31.62
2018-07-11T09:30:07.990Z,32.40
2018-07-11T09:31:07.986Z,33.22
2018-07-11T09:32:07.981Z,33.26
2018-07-11T09:33:07.978Z,33.56
2018-07-11T09:34:07.971Z,33.66
2018-07-11T09:35:07.976Z,33.73
2018-07-11T09:36:07.965Z,33.56
2018-07-11T09:37:07.960Z,33.57
2018-07-11T09:38:07.955Z,33.37
2018-07-11T09:39:07.954Z,33.26
2018-07-11T09:40:07.951Z,33.03
2018-07-11T09:41:07.944Z,32.97
2018-07-11T09:42:07.942Z,32.35
2018-07-11T09:43:07.937Z,32.03
2018-07-11T09:44:07.934Z,31.35
2018-07-11T09:45:07.932Z,30.99
2018-07-11T09:46:07.928Z,30.57
2018-07-11T09:47:07.924Z,30.39
2018-07-11T09:48:07.922Z,30.00
2018-07-11T09:49:07.916Z,29.53
2018-07-11T09:50:07.912Z,29.11
2018-07-11T09:51:07.909Z,28.64
2018-07-11T09:52:07.961Z,28.36
2018-07-11T09:53:07.902Z,28.25
2018-07-11T09:54:07.900Z,28.25
2018-07-11T09:55:07.893Z,28.34
2018-07-11T09:56:07.890Z,28.33
2018-07-11T09:57:07.892Z,28.36
2018-07-11T09:58:07.882Z,28.34
2018-07-11T09:59:07.884Z,28.34
2018-07-11T10:00:07.874Z,28.25
2018-07-11T10:01:07.870Z,27.88
2018-07-11T10:02:07.872Z,27.93
2018-07-11T10:03:07.864Z,28.00
2018-07-11T10:04:07.853Z,27.88
2018-07-11T10:05:07.888Z,27.88
2018-07-11T10:06:07.844Z,27.81
2018-07-11T10:07:07.840Z,27.78
2018-07-11T10:08:07.839Z,27.62
2018-07-11T10:09:07.835Z,27.85
2018-07-11T10:10:07.826Z,27.96
2018-07-11T10:11:07.827Z,28.06
2018-07-11T10:12:07.815Z,28.74
2018-07-11T10:13:07.810Z,28.93
2018-07-11T10:14:07.810Z,29.67
2018-07-11T10:15:07.802Z,30.01
2018-07-11T10:16:07.800Z,30.42
2018-07-11T10:17:07.792Z,30.83
2018-07-11T10:18:07.788Z,31.17
2018-07-11T10:19:07.785Z,31.61
2018-07-11T10:20:07.781Z,31.84
2018-07-11T10:21:07.776Z,32.38
2018-07-11T10:22:07.775Z,32.82
2018-07-11T10:23:07.777Z,33.16
2018-07-11T10:24:07.764Z,33.41
2018-07-11T10:25:07.760Z,33.53
2018-07-11T10:26:07.757Z,32.75
2018-07-11T10:27:07.753Z,32.14
2018-07-11T10:28:07.765Z,31.41
2018-07-11T10:29:07.748Z,30.62
2018-07-11T10:30:07.747Z,30.53
2018-07-11T10:31:07.741Z,30.39
2018-07-11T10:32:07.739Z,30.27
2018-07-11T10:33:07.742Z,30.53
2018-07-11T10:34:07.733Z,30.54
2018-07-11T10:35:07.727Z,30.43
2018-07-11T10:36:07.724Z,30.60
2018-07-11T10:37:07.722Z,30.83
2018-07-11T10:38:07.720Z,31.17
2018-07-11T10:39:07.777Z,31.54
2018-07-11T10:40:07.712Z,32.04
2018-07-11T10:41:07.710Z,32.33
2018-07-11T10:42:07.710Z,32.63
2018-07-11T10:43:07.706Z,32.65
2018-07-11T10:44:07.703Z,33.32
2018-07-11T10:45:07.699Z,33.91
2018-07-11T10:46:07.700Z,34.12
2018-07-11T10:47:07.702Z,33.69
2018-07-11T10:48:07.693Z,32.93
2018-07-11T10:49:07.694Z,32.85
2018-07-11T10:50:07.687Z,32.75
2018-07-11T10:51:07.687Z,33.09
2018-07-11T10:52:07.685Z,33.19
2018-07-11T10:53:07.680Z,33.19
2018-07-11T10:54:07.780Z,32.97
2018-07-11T10:55:08.083Z,32.66
2018-07-11T10:56:07.676Z,32.23
2018-07-11T10:57:07.672Z,32.00
2018-07-11T10:58:07.671Z,31.62
2018-07-11T10:59:07.670Z,31.35
2018-07-11T11:00:07.679Z,30.84
2018-07-11T11:01:07.701Z,30.39
2018-07-11T11:02:07.661Z,30.10
2018-07-11T11:03:07.663Z,30.07
2018-07-11T11:04:07.655Z,30.04
2018-07-11T11:05:07.657Z,29.89
2018-07-11T11:06:07.649Z,29.52
2018-07-11T11:07:07.648Z,29.41
2018-07-11T11:08:07.743Z,29.58
2018-07-11T11:09:07.641Z,30.02
2018-07-11T11:10:07.638Z,30.07
2018-07-11T11:11:07.639Z,30.19
2018-07-11T11:12:07.642Z,30.22
2018-07-11T11:13:07.639Z,30.54
2018-07-11T11:14:07.638Z,30.69
2018-07-11T11:15:07.629Z,30.65
2018-07-11T11:16:07.623Z,30.82
2018-07-11T11:17:07.621Z,30.88
2018-07-11T11:18:07.617Z,30.83
2018-07-11T11:19:07.616Z,30.88
2018-07-11T11:20:07.614Z,30.80
2018-07-11T11:21:07.619Z,30.89
2018-07-11T11:22:07.610Z,30.89
2018-07-11T11:23:07.609Z,30.94
2018-07-11T11:24:07.607Z,31.06
2018-07-11T11:25:07.626Z,31.16
2018-07-11T11:26:07.602Z,30.91
2018-07-11T11:27:07.600Z,31.01
2018-07-11T11:28:07.601Z,31.19
2018-07-11T11:29:07.595Z,31.21
2018-07-11T11:30:07.595Z,31.23
2018-07-11T11:31:07.591Z,31.25
2018-07-11T11:32:07.591Z,31.25
2018-07-11T11:33:07.589Z,31.32
2018-07-11T11:34:07.586Z,31.53
2018-07-11T11:35:07.584Z,31.39
2018-07-11T11:36:07.582Z,31.21
2018-07-11T11:37:07.585Z,31.14
2018-07-11T11:38:07.578Z,30.94
2018-07-11T11:39:07.576Z,31.12
2018-07-11T11:40:07.578Z,31.25
2018-07-11T11:41:07.576Z,31.21
2018-07-11T11:42:07.749Z,31.31
2018-07-11T11:43:07.570Z,31.07
2018-07-11T11:44:07.571Z,30.91
2018-07-11T11:45:07.568Z,31.26
2018-07-11T11:46:07.571Z,31.14
2018-07-11T11:47:07.562Z,31.32
2018-07-11T11:48:07.561Z,31.50
2018-07-11T11:49:07.556Z,31.06
2018-07-11T11:50:07.554Z,31.19
2018-07-11T11:51:07.554Z,31.47
2018-07-11T11:52:07.552Z,31.81
2018-07-11T11:53:07.548Z,32.26
2018-07-11T11:54:07.547Z,32.55
2018-07-11T11:55:07.551Z,32.82
2018-07-11T11:56:07.546Z,33.21
2018-07-11T11:57:07.545Z,33.63
2018-07-11T11:58:07.543Z,33.79
2018-07-11T11:59:07.542Z,33.93
2018-07-11T12:00:07.544Z,34.06
2018-07-11T12:01:07.537Z,33.71
2018-07-11T12:02:07.537Z,33.76
2018-07-11T12:03:07.535Z,33.81
2018-07-11T12:04:07.534Z,33.97
2018-07-11T12:05:07.536Z,33.91
2018-07-11T12:06:07.533Z,33.54
2018-07-11T12:07:07.544Z,32.77
2018-07-11T12:08:07.527Z,32.69
2018-07-11T12:09:07.526Z,32.63
2018-07-11T12:10:07.527Z,32.81
2018-07-11T12:11:07.527Z,32.70
2018-07-11T12:12:07.522Z,32.33
2018-07-11T12:13:07.520Z,32.50
2018-07-11T12:14:07.518Z,32.63
2018-07-11T12:15:07.516Z,32.81
2018-07-11T12:16:07.519Z,32.70
2018-07-11T12:17:07.511Z,32.63
2018-07-11T12:18:07.512Z,32.92
2018-07-11T12:19:07.510Z,32.96
2018-07-11T12:20:07.511Z,33.19
2018-07-11T12:21:07.536Z,33.22
2018-07-11T12:22:07.503Z,33.41
2018-07-11T12:23:07.504Z,33.71
2018-07-11T12:24:07.503Z,33.76
2018-07-11T12:25:07.498Z,33.91
2018-07-11T12:26:07.504Z,34.28
2018-07-11T12:27:07.500Z,34.19
2018-07-11T12:28:07.523Z,33.87
2018-07-11T12:29:07.494Z,33.78
2018-07-11T12:30:07.493Z,33.78
2018-07-11T12:31:07.493Z,33.98
2018-07-11T12:32:07.490Z,33.76
2018-07-11T12:33:07.488Z,33.79
2018-07-11T12:34:07.488Z,33.54
2018-07-11T12:35:07.496Z,33.54
2018-07-11T12:36:07.486Z,33.81
2018-07-11T12:37:07.485Z,33.76
2018-07-11T12:38:07.481Z,33.63
2018-07-11T12:39:07.482Z,33.29
2018-07-11T12:40:07.480Z,32.97
2018-07-11T12:41:07.479Z,32.77
2018-07-11T12:42:07.477Z,32.63
2018-07-11T12:43:07.477Z,32.51
2018-07-11T12:44:07.470Z,32.28
2018-07-11T12:45:07.469Z,32.18
2018-07-11T12:46:07.465Z,32.26
2018-07-11T12:47:07.464Z,32.63
2018-07-11T12:48:07.467Z,32.82
2018-07-11T12:49:07.459Z,32.93
2018-07-11T12:50:07.457Z,32.94
2018-07-11T12:51:07.460Z,32.56
2018-07-11T12:52:07.455Z,32.40
2018-07-11T12:53:07.457Z,32.28
2018-07-11T12:54:07.448Z,32.08
2018-07-11T12:55:07.445Z,31.66
2018-07-11T12:56:07.443Z,31.26
2018-07-11T12:57:07.440Z,30.95
2018-07-11T12:58:07.438Z,30.75
2018-07-11T12:59:07.443Z,30.55